Time;durP1;ratioP1;P1;durP2;ratioP2;P2;SDS_P1;SDS_P2;PMS_P1;PMS_P2;Temp;Humidity;BMP_temperature;BMP_pressure;BME280_temperature;BME280_humidity;BME280_pressure;Samples;Min_cycle;Max_cycle;Signal;HPM_P1;HPM_P2
2023/04/04 00:01:13;;;;;;;9.98;5.78;;;;;;;13.53;79.14;100597.72;5074724;28;20473;-87
2023/04/04 00:03:39;;;;;;;11.13;6.20;;;;;;;13.37;78.93;100554.25;5074581;28;20028;-86
2023/04/04 00:06:04;;;;;;;16.67;6.55;;;;;;;13.40;78.61;100557.88;5093068;28;20073;-86
2023/04/04 00:08:30;;;;;;;13.35;5.93;;;;;;;13.13;79.27;100528.81;5092725;28;20017;-86
2023/04/04 00:10:58;;;;;;;11.38;6.15;;;;;;;13.23;78.67;100538.84;5092994;28;20104;-86
2023/04/04 00:13:25;;;;;;;16.70;6.70;;;;;;;13.14;79.01;100513.97;5074325;28;20051;-86
2023/04/04 00:15:51;;;;;;;10.50;5.50;;;;;;;13.53;79.21;100577.63;5075034;28;20024;-87
2023/04/04 00:18:17;;;;;;;;;;;;;;;13.68;78.66;100579.06;5074679;28;20024;-86
2023/04/04 00:20:47;;;;;;;10.88;5.30;;;;;;;13.24;78.67;100498.66;5074803;28;19920;-86
2023/04/04 00:23:15;;;;;;;12.32;5.68;;;;;;;13.33;78.90;100532.25;5090960;28;20477;-87
2023/04/04 00:25:40;;;;;;;16.08;5.78;;;;;;;13.43;79.07;100544.00;5092246;28;20031;-86
2023/04/04 00:28:06;;;;;;;14.82;6.20;;;;;;;13.23;79.11;100507.38;5074266;28;20032;-86
2023/04/04 00:30:33;;;;;;;10.73;5.65;;;;;;;13.44;79.29;100535.31;5092324;28;20099;-87
2023/04/04 00:33:00;;;;;;;13.85;6.03;;;;;;;13.48;79.00;100531.94;5074331;28;20044;-87
2023/04/04 00:35:26;;;;;;;11.65;5.72;;;;;;;13.27;79.31;100510.09;5074317;28;20055;-87
2023/04/04 00:37:53;;;;;;;10.40;5.50;;;;;;;13.49;78.83;100527.59;5092851;28;20272;-87
2023/04/04 00:40:18;;;;;;;15.25;5.43;;;;;;;13.30;78.75;100484.03;5041113;28;20041;-87
2023/04/04 00:42:44;;;;;;;11.00;5.25;;;;;;;13.54;78.74;100520.78;5053824;28;20039;-87
2023/04/04 00:45:10;;;;;;;12.55;5.47;;;;;;;13.53;78.99;100519.03;5070645;28;20107;-87
2023/04/04 00:47:37;;;;;;;11.48;5.70;;;;;;;13.53;78.76;100519.03;5053677;28;20051;-87
2023/04/04 00:50:03;;;;;;;10.35;5.88;;;;;;;13.06;78.81;100439.38;5037717;28;20040;-87
2023/04/04 00:52:29;;;;;;;10.90;5.60;;;;;;;13.27;78.97;100471.69;5066707;28;20086;-87
2023/04/04 00:54:55;;;;;;;13.13;6.43;;;;;;;13.63;78.61;100521.13;5071813;28;20036;-86
2023/04/04 00:57:21;;;;;;;13.65;5.78;;;;;;;13.29;78.87;100456.91;5054024;28;20032;-87
2023/04/04 00:59:47;;;;;;;11.07;5.40;;;;;;;13.55;78.93;100520.84;5037301;28;20482;-87
2023/04/04 01:02:12;;;;;;;9.77;5.43;;;;;;;13.12;79.37;100442.22;5071569;28;20119;-86
2023/04/04 01:04:38;;;;;;;9.10;5.07;;;;;;;13.09;79.06;100435.16;5053808;28;20032;-87
2023/04/04 01:07:03;;;;;;;11.60;5.10;;;;;;;13.08;78.94;100421.97;5071905;28;20067;-87
2023/04/04 01:09:29;;;;;;;11.98;5.45;;;;;;;13.16;78.93;100431.03;5069620;28;20039;-87
2023/04/04 01:11:55;;;;;;;11.80;6.30;;;;;;;13.46;78.74;100478.53;5053714;28;20535;-86
2023/04/04 01:14:21;;;;;;;12.68;5.97;;;;;;;13.14;79.44;100416.97;5052687;28;20490;-86
2023/04/04 01:16:50;;;;;;;8.90;5.68;;;;;;;13.48;79.00;100478.59;5041182;28;20025;-87
2023/04/04 01:19:33;;;;;;;13.18;6.03;;;;;;;13.34;79.19;100438.75;5036637;28;20497;-87
2023/04/04 01:22:01;;;;;;;11.00;5.30;;;;;;;13.36;79.03;100445.81;5070146;28;20020;-86
2023/04/04 01:24:31;;;;;;;16.42;5.75;;;;;;;13.26;78.94;100427.91;5053411;28;20098;-87
2023/04/04 01:26:57;;;;;;;11.77;5.50;;;;;;;13.23;79.35;100412.97;5064359;28;20029;-86
2023/04/04 01:29:22;;;;;;;8.98;4.95;;;;;;;13.37;79.25;100429.25;5071156;28;20036;-86
2023/04/04 01:31:59;;;;;;;11.35;5.20;;;;;;;13.35;79.08;100423.03;5071129;28;20497;-86
2023/04/04 01:34:25;;;;;;;;;;;;;;;13.44;79.62;100431.28;5041029;28;20077;-86
2023/04/04 01:37:00;;;;;;;10.00;5.25;;;;;;;13.19;78.83;100356.00;5070888;28;20002;-87
2023/04/04 01:39:42;;;;;;;11.30;5.40;;;;;;;13.27;79.29;100369.41;5055400;28;20413;-87
2023/04/04 01:42:08;;;;;;;10.60;5.53;;;;;;;13.28;79.23;100354.56;5072194;28;20032;-86
2023/04/04 01:44:34;;;;;;;11.63;5.60;;;;;;;13.07;79.33;100325.84;5073203;28;20032;-86
2023/04/04 01:47:02;;;;;;;;;;;;;;;13.41;79.39;100386.56;5073697;28;20039;-86
2023/04/04 01:49:27;;;;;;;;;;;;;;;13.36;79.80;100387.25;5082448;28;19931;-86
2023/04/04 01:51:54;;;;;;;13.07;6.22;;;;;;;13.29;78.91;100359.00;5072976;28;20384;-86
2023/04/04 01:54:19;;;;;;;13.85;5.70;;;;;;;13.21;79.44;100364.81;5073309;28;20031;-86
2023/04/04 01:56:45;;;;;;;13.98;6.65;;;;;;;13.37;79.27;100383.78;5072701;28;20032;-86
2023/04/04 01:59:11;;;;;;;13.57;6.65;;;;;;;13.16;79.47;100342.78;5090966;28;20035;-86
2023/04/04 02:01:37;;;;;;;12.82;6.70;;;;;;;13.22;79.49;100348.25;5071864;28;20047;-87
2023/04/04 02:04:02;;;;;;;;;;;;;;;13.42;79.23;100364.75;5068362;28;20044;-86
2023/04/04 02:06:29;;;;;;;12.63;6.00;;;;;;;13.21;79.01;100332.47;5080293;28;19914;-86
2023/04/04 02:08:55;;;;;;;11.52;5.85;;;;;;;13.19;78.80;100313.19;5076927;28;20057;-86
2023/04/04 02:11:24;;;;;;;12.93;5.65;;;;;;;13.35;78.57;100330.38;5072731;28;20069;-86
2023/04/04 02:13:50;;;;;;;10.52;5.82;;;;;;;13.10;78.55;100303.25;5090603;28;20063;-85
2023/04/04 02:16:15;;;;;;;12.85;5.97;;;;;;;13.33;79.10;100324.19;5085841;28;20048;-86
2023/04/04 02:18:41;;;;;;;14.50;5.63;;;;;;;13.14;78.70;100285.88;5088726;28;20038;-86
2023/04/04 02:21:07;;;;;;;13.18;5.97;;;;;;;13.03;79.46;100264.53;5092869;28;20536;-86
2023/04/04 02:23:33;;;;;;;12.05;5.70;;;;;;;13.05;78.77;100265.47;5063504;28;20402;-87
2023/04/04 02:25:58;;;;;;;13.13;6.20;;;;;;;12.94;78.77;100251.13;5093640;28;20020;-86
2023/04/04 02:28:24;;;;;;;15.38;7.07;;;;;;;12.91;79.30;100233.56;5093559;28;20507;-87
2023/04/04 02:30:51;;;;;;;11.23;6.38;;;;;;;13.34;78.97;100303.25;5076610;28;20063;-87
2023/04/04 02:33:16;;;;;;;;;;;;;;;13.43;78.88;100311.44;5095105;28;20107;-86
2023/04/04 02:35:41;;;;;;;13.40;6.10;;;;;;;12.97;78.77;100238.09;5093363;28;20069;-86
2023/04/04 02:38:07;;;;;;;13.60;6.38;;;;;;;13.31;78.68;100291.75;5094064;28;20036;-85
2023/04/04 02:40:33;;;;;;;12.95;5.78;;;;;;;13.10;79.44;100269.19;5075904;28;20045;-86
2023/04/04 02:42:58;;;;;;;12.43;5.95;;;;;;;13.09;78.51;100259.50;5074513;28;20032;-87
2023/04/04 02:45:24;;;;;;;9.77;5.45;;;;;;;13.09;78.82;100262.13;5052741;28;20025;-86
2023/04/04 02:47:50;;;;;;;9.07;6.32;;;;;;;13.33;78.59;100290.09;5055276;28;20029;-87
2023/04/04 02:50:16;;;;;;;8.85;6.63;;;;;;;13.08;78.50;100234.16;5057220;28;20036;-87
2023/04/04 02:52:41;;;;;;;13.93;6.47;;;;;;;13.06;79.57;100250.63;5074467;28;20024;-86
2023/04/04 02:55:08;;;;;;;10.93;5.93;;;;;;;13.29;79.04;100293.44;5072904;28;20705;-87
2023/04/04 02:57:33;;;;;;;13.10;6.10;;;;;;;13.22;79.65;100266.09;5055872;28;20067;-86
2023/04/04 03:00:00;;;;;;;11.15;6.05;;;;;;;13.13;79.01;100271.00;5055743;28;20067;-85
2023/04/04 03:02:25;;;;;;;14.30;5.60;;;;;;;13.01;78.79;100238.25;5055739;28;20032;-86
2023/04/04 03:04:52;;;;;;;12.45;6.03;;;;;;;13.07;78.56;100229.72;5073842;28;20036;-86
2023/04/04 03:07:17;;;;;;;10.93;5.47;;;;;;;12.96;79.24;100224.13;5039114;28;20055;-85
2023/04/04 03:09:44;;;;;;;12.40;5.85;;;;;;;13.19;78.40;100260.75;5058823;28;20404;-86
2023/04/04 03:12:09;;;;;;;;;;;;;;;13.39;78.98;100285.06;5039578;28;20036;-85
2023/04/04 03:14:35;;;;;;;12.55;5.28;;;;;;;13.22;78.88;100255.59;5072339;28;20066;-86
2023/04/04 03:17:02;;;;;;;11.18;5.38;;;;;;;12.86;79.56;100244.69;5039198;28;20543;-86
2023/04/04 03:19:28;;;;;;;10.40;5.50;;;;;;;12.69;79.34;100213.53;5055836;28;20032;-87
2023/04/04 03:21:53;;;;;;;12.90;5.40;;;;;;;12.97;79.39;100309.75;5055460;28;20116;-86
2023/04/04 03:24:19;;;;;;;7.95;5.32;;;;;;;12.89;79.35;100302.44;5071032;28;20520;-86
2023/04/04 03:26:45;;;;;;;12.90;5.55;;;;;;;13.32;78.42;100367.00;5073365;28;20105;-86
2023/04/04 03:29:10;;;;;;;14.43;5.85;;;;;;;13.39;78.66;100384.72;5055417;28;20028;-86
2023/04/04 03:31:36;;;;;;;8.35;5.22;;;;;;;12.96;78.38;100297.50;5055483;28;20149;-86
2023/04/04 03:34:03;;;;;;;11.93;5.25;;;;;;;13.30;78.05;100340.69;5072202;28;20033;-86
2023/04/04 03:36:29;;;;;;;12.38;5.70;;;;;;;13.17;78.12;100315.75;5073203;28;20032;-85
2023/04/04 03:38:55;;;;;;;10.35;5.47;;;;;;;13.08;78.59;100322.38;5048302;28;20044;-85
2023/04/04 03:41:21;;;;;;;10.35;5.57;;;;;;;13.09;78.64;100321.53;5064647;28;20036;-86
2023/04/04 03:43:47;;;;;;;11.30;5.57;;;;;;;13.45;77.95;100371.81;5071542;28;20086;-86
2023/04/04 03:46:15;;;;;;;9.48;5.43;;;;;;;13.06;77.63;100313.53;5064208;28;20037;-86
2023/04/04 03:48:41;;;;;;;13.95;5.70;;;;;;;13.15;77.72;100319.16;5071829;28;20028;-86
2023/04/04 03:51:07;;;;;;;9.48;5.30;;;;;;;13.38;78.14;100361.97;5068004;28;20489;-87
2023/04/04 03:53:34;;;;;;;10.38;5.70;;;;;;;13.03;77.89;100296.88;5066415;28;20048;-85
2023/04/04 03:56:00;;;;;;;9.38;5.28;;;;;;;12.95;77.84;100284.31;5088559;28;20024;-86
2023/04/04 03:58:27;;;;;;;8.15;5.47;;;;;;;13.30;78.39;100360.78;5065595;28;20512;-86
2023/04/04 04:00:53;;;;;;;9.90;5.20;;;;;;;13.28;78.30;100376.44;5071674;28;20036;-85
2023/04/04 04:03:20;;;;;;;10.93;5.80;;;;;;;13.37;78.23;100395.16;5069784;28;20037;-86
2023/04/04 04:05:45;;;;;;;;;;;;;;;13.44;78.05;100406.78;5068350;28;20032;-86
2023/04/04 04:08:11;;;;;;;10.35;5.20;;;;;;;13.31;78.09;100405.41;5063201;28;19915;-86
2023/04/04 04:10:36;;;;;;;6.75;4.82;;;;;;;13.17;78.24;100389.16;5072768;28;20030;-85
2023/04/04 04:13:03;;;;;;;9.00;5.63;;;;;;;13.14;78.09;100377.66;5070426;28;20102;-86
2023/04/04 04:15:28;;;;;;;11.43;5.63;;;;;;;13.04;78.04;100345.84;5072453;28;20052;-86
2023/04/04 04:17:54;;;;;;;8.23;5.15;;;;;;;13.33;77.72;100369.66;5072316;28;20056;-86
2023/04/04 04:20:19;;;;;;;11.07;5.80;;;;;;;12.97;77.70;100314.09;5046414;28;20488;-86
2023/04/04 04:22:48;;;;;;;9.13;5.35;;;;;;;13.46;77.96;100396.31;5071018;28;20033;-86
2023/04/04 04:25:15;;;;;;;13.75;5.93;;;;;;;13.41;77.73;100399.66;5063600;28;20026;-86
2023/04/04 04:27:41;;;;;;;11.77;5.45;;;;;;;13.13;78.20;100345.31;5070918;28;20020;-86
2023/04/04 04:30:07;;;;;;;10.95;5.72;;;;;;;13.36;78.77;100389.88;5053855;28;20095;-87
2023/04/04 04:32:33;;;;;;;10.65;5.40;;;;;;;13.37;78.67;100386.38;5065809;28;20031;-86
2023/04/04 04:34:59;;;;;;;11.65;5.40;;;;;;;13.22;78.82;100363.09;5087978;28;20099;-87
2023/04/04 04:37:25;;;;;;;12.35;5.80;;;;;;;13.37;78.09;100362.78;5064379;28;20067;-87
2023/04/04 04:39:51;;;;;;;;;;;;;;;13.36;78.64;100333.06;5069568;28;20633;-89
2023/04/04 04:42:17;;;;;;;11.70;5.53;;;;;;;13.26;78.20;100328.28;5067454;28;20007;-87
2023/04/04 04:44:42;;;;;;;12.75;5.53;;;;;;;13.14;78.61;100325.22;5062902;28;20071;-87
2023/04/04 04:47:08;;;;;;;11.50;5.03;;;;;;;13.06;78.14;100309.22;5054001;28;20494;-86
2023/04/04 04:49:34;;;;;;;9.48;5.13;;;;;;;13.23;78.33;100355.28;5050758;28;20056;-86
2023/04/04 04:52:00;;;;;;;12.88;5.70;;;;;;;13.08;78.43;100324.97;5036019;28;20476;-87
2023/04/04 04:54:25;;;;;;;13.45;6.28;;;;;;;12.97;78.78;100314.09;5050731;28;20035;-86
2023/04/04 04:56:51;;;;;;;13.93;5.55;;;;;;;13.36;78.25;100363.63;5048915;28;20041;-86
2023/04/04 04:59:16;;;;;;;12.80;5.32;;;;;;;13.14;78.44;100325.22;5057572;28;20040;-87
2023/04/04 05:01:42;;;;;;;8.38;5.20;;;;;;;13.14;79.19;100343.56;5046377;28;20430;-86
2023/04/04 05:04:07;;;;;;;10.05;5.53;;;;;;;13.23;78.93;100351.78;5058970;28;20032;-88
2023/04/04 05:06:33;;;;;;;14.80;6.18;;;;;;;12.84;78.48;100299.66;5042330;28;20041;-86
2023/04/04 05:09:02;;;;;;;10.98;5.38;;;;;;;13.12;78.76;100346.16;5054558;28;20139;-87
2023/04/04 05:11:27;;;;;;;11.98;5.38;;;;;;;12.93;79.19;100325.31;5032806;28;20072;-87
2023/04/04 05:13:53;;;;;;;12.20;5.25;;;;;;;13.15;79.35;100358.47;5054351;28;20056;-88
2023/04/04 05:16:19;;;;;;;9.27;5.35;;;;;;;12.95;79.56;100321.94;5046746;28;20060;-90
2023/04/04 05:18:45;;;;;;;12.10;4.82;;;;;;;13.17;79.58;100348.94;5053229;28;20496;-87
2023/04/04 05:21:11;;;;;;;10.27;5.45;;;;;;;13.10;79.49;100334.72;5070484;28;20032;-88
2023/04/04 05:23:44;;;;;;;10.27;5.00;;;;;;;13.10;79.16;100311.13;5064370;28;20024;-88
2023/04/04 05:26:09;;;;;;;10.73;4.85;;;;;;;13.31;78.45;100338.97;5047030;28;20040;-88
2023/04/04 05:28:35;;;;;;;11.70;5.38;;;;;;;13.28;78.41;100313.50;5059827;28;20029;-86
2023/04/04 05:31:01;;;;;;;10.43;5.63;;;;;;;12.85;78.90;100249.06;5056480;28;20033;-88
2023/04/04 05:33:26;;;;;;;13.13;5.25;;;;;;;13.08;78.56;100278.72;5054606;28;20025;-87
2023/04/04 05:35:52;;;;;;;9.10;5.15;;;;;;;13.22;78.53;100287.94;5050009;28;20491;-87
2023/04/04 05:38:17;;;;;;;13.45;5.22;;;;;;;13.08;78.57;100260.38;5046881;28;20025;-86
2023/04/04 05:40:44;;;;;;;11.88;5.43;;;;;;;12.88;78.86;100236.06;5053103;28;20055;-86
2023/04/04 05:43:10;;;;;;;13.48;5.30;;;;;;;13.30;78.64;100290.88;5056412;28;20036;-86
2023/04/04 05:45:35;;;;;;;10.73;5.25;;;;;;;13.18;79.03;100293.03;5037996;28;20036;-86
2023/04/04 05:48:01;;;;;;;11.35;5.07;;;;;;;13.18;79.25;100296.53;5071207;28;20111;-87
2023/04/04 05:50:27;;;;;;;9.07;5.00;;;;;;;12.70;79.21;100211.78;5062305;28;20482;-87
2023/04/04 05:52:55;;;;;;;10.00;5.35;;;;;;;13.10;79.35;100278.75;5048051;28;20033;-87
2023/04/04 05:55:21;;;;;;;13.48;6.13;;;;;;;13.24;78.76;100315.09;5035437;28;20049;-87
2023/04/04 05:57:49;;;;;;;11.82;5.82;;;;;;;13.30;78.22;100329.34;5052863;28;20074;-89
2023/04/04 06:00:16;;;;;;;13.85;6.20;;;;;;;13.07;78.63;100297.88;5052054;28;20047;-87
2023/04/04 06:02:42;;;;;;;12.15;5.97;;;;;;;13.10;78.59;100303.25;5059817;28;20102;-87
2023/04/04 06:05:08;;;;;;;9.50;5.32;;;;;;;13.11;78.74;100286.69;5069314;28;20776;-87
2023/04/04 06:07:33;;;;;;;10.88;5.40;;;;;;;13.32;78.31;100312.81;5051679;28;20052;-87
2023/04/04 06:09:59;;;;;;;11.00;5.35;;;;;;;12.92;78.74;100266.78;5070639;28;20025;-86
2023/04/04 06:12:24;;;;;;;10.82;5.28;;;;;;;13.26;78.85;100299.44;5052648;28;20111;-88
2023/04/04 06:14:51;;;;;;;10.45;5.28;;;;;;;13.20;78.63;100297.47;5072344;28;20016;-87
2023/04/04 06:17:17;;;;;;;11.05;5.03;;;;;;;13.12;78.71;100305.91;5054149;28;20300;-88
2023/04/04 06:19:43;;;;;;;13.00;5.43;;;;;;;12.92;79.06;100274.63;5035847;28;20780;-87
2023/04/04 06:22:08;;;;;;;14.82;5.72;;;;;;;12.81;78.72;100248.03;5052647;28;20133;-87
2023/04/04 06:24:34;;;;;;;11.52;5.35;;;;;;;12.92;78.40;100242.31;5052571;28;20036;-87
2023/04/04 06:27:00;;;;;;;12.05;5.28;;;;;;;13.13;78.36;100279.75;5048843;28;20138;-88
2023/04/04 06:29:26;;;;;;;9.68;5.28;;;;;;;13.17;79.50;100296.50;5049638;28;20489;-86
2023/04/04 06:31:51;;;;;;;9.02;5.20;;;;;;;13.15;79.42;100304.31;5067647;28;20027;-88
2023/04/04 06:34:17;;;;;;;11.80;5.78;;;;;;;13.15;79.14;100285.94;5036009;28;20119;-87
2023/04/04 06:36:43;;;;;;;13.30;5.47;;;;;;;13.02;78.95;100260.16;5077163;28;20489;-86
2023/04/04 06:39:11;;;;;;;11.00;5.35;;;;;;;12.84;78.84;100218.44;5052036;28;20532;-87
2023/04/04 06:41:36;;;;;;;8.23;4.78;;;;;;;13.00;78.58;100252.22;5085871;28;20035;-84
2023/04/04 06:44:02;;;;;;;10.93;5.15;;;;;;;12.83;79.52;100254.22;5072326;28;20024;-86
2023/04/04 06:46:30;;;;;;;11.50;4.95;;;;;;;12.86;78.59;100258.69;5089971;28;20106;-86
2023/04/04 06:48:55;;;;;;;10.38;5.22;;;;;;;13.24;78.99;100322.09;5089700;28;20032;-86
2023/04/04 06:51:22;;;;;;;9.75;5.07;;;;;;;12.82;78.73;100247.19;5072278;28;20016;-88
2023/04/04 06:53:48;;;;;;;7.72;4.90;;;;;;;13.15;79.00;100303.41;5088901;28;20111;-87
2023/04/04 06:56:14;;;;;;;;;;;;;;;13.27;78.93;100316.97;5065794;28;20048;-85
2023/04/04 06:58:40;;;;;;;9.52;4.70;;;;;;;12.84;79.18;100253.38;5088182;28;19912;-85
2023/04/04 07:01:06;;;;;;;9.55;5.13;;;;;;;13.20;79.48;100323.69;5089661;28;20109;-85
2023/04/04 07:03:32;;;;;;;10.10;4.72;;;;;;;13.21;79.22;100319.38;5088749;28;20031;-85
2023/04/04 07:06:03;;;;;;;10.23;4.53;;;;;;;13.24;79.17;100314.22;5065103;28;20549;-89
2023/04/04 07:08:29;;;;;;;8.73;4.97;;;;;;;12.76;78.70;100241.75;5066089;28;20051;-86
2023/04/04 07:10:55;;;;;;;11.45;4.80;;;;;;;13.20;78.87;100301.84;5058445;28;20591;-87
2023/04/04 07:13:23;;;;;;;6.95;4.53;;;;;;;12.91;78.85;100243.13;5067469;28;20463;-87
2023/04/04 07:15:49;;;;;;;6.80;4.28;;;;;;;13.05;79.26;100260.25;5065779;28;20062;-85
2023/04/04 07:18:15;;;;;;;6.35;4.60;;;;;;;13.01;79.02;100253.09;5091198;28;20492;-87
2023/04/04 07:20:42;;;;;;;8.25;4.43;;;;;;;13.23;79.59;100288.84;5063959;28;20029;-86
2023/04/04 07:23:11;;;;;;;8.95;4.80;;;;;;;13.21;79.18;100280.03;5085667;28;20543;-87
2023/04/04 07:25:38;;;;;;;12.85;4.82;;;;;;;12.61;79.25;100162.59;5076172;28;20178;-86
2023/04/04 07:28:03;;;;;;;;;;;;;;;13.28;79.12;100270.66;5069732;28;20089;-87
2023/04/04 07:30:31;;;;;;;9.05;4.45;;;;;;;12.88;79.42;100219.44;5073632;28;19912;-88
2023/04/04 07:32:58;;;;;;;8.43;5.38;;;;;;;13.03;79.55;100265.41;5074179;28;20039;-87
2023/04/04 07:35:27;;;;;;;8.02;4.78;;;;;;;13.05;79.85;100273.34;5077591;28;20038;-89
2023/04/04 07:37:53;;;;;;;7.13;4.68;;;;;;;12.76;79.79;100220.78;5077634;28;20034;-87
2023/04/04 07:40:24;;;;;;;8.38;4.63;;;;;;;13.15;79.82;100290.31;5058809;28;20135;-90
2023/04/04 07:42:50;;;;;;;9.25;5.07;;;;;;;12.78;79.91;100232.22;5070351;28;20059;-88
2023/04/04 07:45:19;;;;;;;8.88;4.70;;;;;;;12.80;79.72;100234.88;5079910;28;20152;-87
2023/04/04 07:47:45;;;;;;;9.27;5.07;;;;;;;13.04;80.03;100288.19;5073912;28;20024;-88
2023/04/04 07:50:12;;;;;;;11.00;5.50;;;;;;;12.72;79.77;100228.47;5073444;28;20024;-86
2023/04/04 07:52:38;;;;;;;9.68;5.13;;;;;;;13.20;80.03;100297.47;5089714;28;20023;-90
2023/04/04 07:55:06;;;;;;;8.43;5.63;;;;;;;13.02;79.88;100263.66;5068123;28;20065;-86
2023/04/04 07:57:32;;;;;;;9.32;5.15;;;;;;;13.15;79.93;100287.69;5095381;28;20030;-86
2023/04/04 07:59:58;;;;;;;8.95;5.30;;;;;;;13.24;79.88;100288.88;5094836;28;20089;-86
2023/04/04 08:02:25;;;;;;;11.32;5.43;;;;;;;13.22;79.88;100285.31;5076607;28;20809;-88
2023/04/04 08:04:50;;;;;;;11.27;5.75;;;;;;;13.11;79.82;100286.69;5074772;28;20055;-87
2023/04/04 08:07:16;;;;;;;7.97;5.20;;;;;;;12.85;79.46;100217.59;5075115;28;20485;-86
2023/04/04 08:09:42;;;;;;;9.10;5.72;;;;;;;13.00;79.50;100240.84;5083800;28;20027;-86
2023/04/04 08:12:08;;;;;;;11.15;5.78;;;;;;;12.88;79.64;100233.44;5093006;28;20058;-86
2023/04/04 08:14:33;;;;;;;9.02;5.20;;;;;;;13.02;79.88;100252.28;5073337;28;21338;-86
2023/04/04 08:16:59;;;;;;;10.70;5.25;;;;;;;13.27;79.84;100305.56;5098940;28;20012;-86
2023/04/04 08:19:24;;;;;;;8.90;5.55;;;;;;;13.15;79.56;100293.81;5073453;28;20024;-86
2023/04/04 08:21:50;;;;;;;11.23;5.90;;;;;;;13.10;79.58;100287.53;5092936;28;20024;-86
2023/04/04 08:24:16;;;;;;;9.43;5.18;;;;;;;12.85;80.02;100246.44;5091584;28;20064;-86
2023/04/04 08:26:42;;;;;;;8.80;5.50;;;;;;;12.98;79.73;100255.63;5072727;28;20103;-86
2023/04/04 08:29:07;;;;;;;8.65;5.40;;;;;;;13.06;79.48;100272.53;5068251;28;20040;-86
2023/04/04 08:31:33;;;;;;;12.63;5.80;;;;;;;13.20;79.40;100287.00;5065905;28;20028;-87
2023/04/04 08:34:01;;;;;;;12.20;5.63;;;;;;;12.92;79.29;100226.59;5091007;28;20027;-86
2023/04/04 08:36:27;;;;;;;9.18;4.90;;;;;;;13.13;79.04;100265.78;5060820;28;20032;-86
2023/04/04 08:38:52;;;;;;;;;;;;;;;13.30;79.39;100303.09;5086415;28;20074;-85
2023/04/04 08:41:18;;;;;;;10.43;5.50;;;;;;;13.17;79.29;100286.00;5061497;28;20389;-87
2023/04/04 08:43:47;;;;;;;9.38;5.40;;;;;;;13.04;79.51;100263.72;5092111;28;20081;-86
2023/04/04 08:46:15;;;;;;;7.70;5.40;;;;;;;13.01;79.60;100282.81;5074222;28;20509;-87
2023/04/04 08:48:42;;;;;;;7.47;5.13;;;;;;;13.35;78.94;100326.00;5073788;28;20086;-87
2023/04/04 08:51:10;;;;;;;7.60;4.97;;;;;;;13.04;79.07;100269.84;5074028;28;20020;-86
2023/04/04 08:53:36;;;;;;;8.95;5.03;;;;;;;13.34;78.93;100318.13;5087364;28;20078;-86
2023/04/04 08:56:02;;;;;;;11.98;5.75;;;;;;;13.19;78.84;100286.97;5065220;28;20031;-85
2023/04/04 08:58:28;;;;;;;9.00;5.60;;;;;;;13.25;78.75;100279.31;5086639;28;20028;-85
2023/04/04 09:00:54;;;;;;;10.75;5.25;;;;;;;12.95;78.89;100221.44;5092176;28;20044;-87
2023/04/04 09:03:25;;;;;;;7.75;5.03;;;;;;;13.31;78.98;100291.75;5088083;28;20158;-87
2023/04/04 09:05:52;;;;;;;11.25;5.47;;;;;;;13.24;78.75;100278.41;5085645;28;20039;-87
2023/04/04 09:08:18;;;;;;;8.73;5.35;;;;;;;13.41;78.94;100312.22;5088571;28;20031;-87
2023/04/04 09:10:44;;;;;;;11.30;5.50;;;;;;;13.28;78.90;100287.28;5077769;28;20036;-87
2023/04/04 09:13:10;;;;;;;9.00;5.30;;;;;;;13.40;79.07;100311.34;5077204;28;20097;-87
2023/04/04 09:15:41;;;;;;;8.43;5.25;;;;;;;13.21;79.06;100273.06;5090508;28;20436;-87
2023/04/04 09:18:06;;;;;;;7.93;4.90;;;;;;;13.34;79.01;100287.53;5071981;28;20036;-87
2023/04/04 09:20:45;;;;;;;9.18;4.93;;;;;;;13.20;79.27;100275.63;5082191;28;20400;-87
2023/04/04 09:23:16;;;;;;;10.80;5.25;;;;;;;13.41;79.12;100310.50;5091377;28;20039;-86
2023/04/04 09:25:47;;;;;;;7.55;4.78;;;;;;;13.43;79.13;100306.19;5092876;28;20028;-86
2023/04/04 09:28:22;;;;;;;7.75;5.00;;;;;;;13.15;78.90;100245.75;5062451;28;20063;-88
2023/04/04 09:30:49;;;;;;;9.52;5.10;;;;;;;13.46;79.21;100294.03;5072930;28;20026;-87
2023/04/04 09:33:16;;;;;;;8.65;4.55;;;;;;;13.48;78.82;100306.34;5073413;28;20054;-87
2023/04/04 09:35:51;;;;;;;9.20;5.05;;;;;;;13.03;78.90;100235.69;5056466;28;20081;-87
2023/04/04 09:38:17;;;;;;;10.40;4.78;;;;;;;13.35;79.05;100289.28;5067949;28;20036;-86
2023/04/04 09:40:44;;;;;;;11.27;5.63;;;;;;;13.30;79.10;100276.88;5085932;28;20055;-87
2023/04/04 09:43:11;;;;;;;6.57;4.63;;;;;;;13.38;79.20;100285.91;5088830;28;20043;-88
2023/04/04 09:45:39;;;;;;;9.85;4.97;;;;;;;13.47;78.99;100299.34;5069467;28;20020;-85
2023/04/04 09:48:09;;;;;;;12.25;5.35;;;;;;;13.24;78.79;100233.81;5090884;28;20425;-86
2023/04/04 09:50:35;;;;;;;9.73;5.10;;;;;;;13.19;78.83;100237.16;5072953;28;20028;-86
2023/04/04 09:53:00;;;;;;;6.22;4.88;;;;;;;13.34;78.97;100263.03;5073042;28;20474;-86
2023/04/04 09:55:34;;;;;;;8.20;5.25;;;;;;;13.49;78.68;100284.53;5104663;28;20052;-86
2023/04/04 09:58:10;;;;;;;7.90;4.80;;;;;;;13.47;78.90;100287.97;5093979;28;20503;-87
2023/04/04 10:00:41;;;;;;;9.15;5.15;;;;;;;13.34;78.68;100260.41;5059785;28;20027;-87
2023/04/04 10:03:07;;;;;;;7.90;4.75;;;;;;;13.03;78.82;100218.25;5073067;28;20497;-86
2023/04/04 10:05:33;;;;;;;8.95;5.00;;;;;;;13.02;78.99;100218.22;5091029;28;20028;-86
2023/04/04 10:08:00;;;;;;;8.65;4.95;;;;;;;13.33;79.19;100290.09;5071425;28;20023;-87
2023/04/04 10:10:31;;;;;;;8.88;5.13;;;;;;;13.42;79.03;100293.94;5096073;28;20077;-86
2023/04/04 10:12:57;;;;;;;8.57;4.53;;;;;;;13.37;78.86;100277.13;5083913;28;20086;-87
2023/04/04 10:15:23;;;;;;;6.80;4.72;;;;;;;13.38;78.61;100271.06;5064974;28;20046;-86
2023/04/04 10:17:52;;;;;;;8.65;4.85;;;;;;;13.10;78.58;100227.25;5072447;28;20032;-88
2023/04/04 10:20:18;;;;;;;9.00;5.28;;;;;;;13.18;79.01;100251.97;5089563;28;20140;-87
2023/04/04 10:22:45;;;;;;;8.27;5.00;;;;;;;13.40;78.89;100297.34;5072378;28;20061;-88
2023/04/04 10:25:11;;;;;;;7.32;4.80;;;;;;;13.33;78.90;100277.84;5089543;28;20159;-88
2023/04/04 10:27:37;;;;;;;7.95;4.97;;;;;;;13.03;78.82;100215.63;5072535;28;20020;-88
2023/04/04 10:30:03;;;;;;;7.97;5.00;;;;;;;13.31;78.78;100255.94;5090510;28;20035;-87
2023/04/04 10:32:32;;;;;;;8.07;4.93;;;;;;;13.57;78.60;100297.94;5072618;28;20107;-88
2023/04/04 10:35:02;;;;;;;12.02;5.05;;;;;;;13.42;78.84;100282.56;5090460;28;20107;-87
2023/04/04 10:37:31;;;;;;;11.18;5.22;;;;;;;13.54;79.21;100292.56;5072426;28;20107;-87
2023/04/04 10:40:13;;;;;;;6.25;4.75;;;;;;;13.44;79.08;100273.91;5055687;28;20047;-87
2023/04/04 10:42:43;;;;;;;8.02;5.03;;;;;;;13.48;79.27;100288.00;5075612;28;20623;-87
2023/04/04 10:45:09;;;;;;;8.80;5.10;;;;;;;13.53;79.32;100282.94;5059744;28;20062;-87
2023/04/04 10:47:36;;;;;;;9.55;5.22;;;;;;;13.37;79.61;100266.63;5076431;28;20027;-86
2023/04/04 10:50:02;;;;;;;;;;;;;;;13.49;79.61;100288.91;5077031;28;20161;-87
2023/04/04 10:52:30;;;;;;;8.50;5.20;;;;;;;13.47;79.93;100280.09;5093003;28;19908;-86
2023/04/04 10:55:01;;;;;;;9.25;5.30;;;;;;;13.36;79.73;100262.25;5076367;28;20034;-85
2023/04/04 10:57:30;;;;;;;7.78;5.10;;;;;;;13.37;79.95;100248.28;5080575;28;20497;-87
2023/04/04 11:00:10;;;;;;;8.63;5.07;;;;;;;13.33;79.72;100235.03;5074510;28;20125;-87
2023/04/04 11:02:51;;;;;;;9.68;4.70;;;;;;;13.54;79.70;100261.97;5066413;28;20039;-86
2023/04/04 11:05:40;;;;;;;8.88;4.88;;;;;;;13.53;80.14;100275.94;5076740;28;20020;-86
2023/04/04 11:08:08;;;;;;;8.15;5.10;;;;;;;13.40;79.61;100232.66;5075740;28;20020;-87
2023/04/04 11:10:38;;;;;;;8.68;5.00;;;;;;;13.48;80.07;100263.50;5092535;28;20024;-86
2023/04/04 11:13:17;;;;;;;7.72;5.03;;;;;;;13.31;79.99;100240.19;5092601;28;20036;-86
2023/04/04 11:15:55;;;;;;;8.18;5.07;;;;;;;13.51;80.25;100266.25;5075792;28;20054;-85
2023/04/04 11:18:42;;;;;;;9.77;5.47;;;;;;;13.48;80.25;100260.88;5086161;28;20025;-86
2023/04/04 11:21:18;;;;;;;8.60;5.35;;;;;;;13.52;80.21;100268.00;5081966;28;20036;-86
2023/04/04 11:23:50;;;;;;;7.60;5.10;;;;;;;13.53;80.14;100269.81;5093320;28;20032;-86